Aviation Digital Data Service (ADDS)

Output produced by METARs form (2227 UTC 24 March 2019)
found at http://www.aviationweather.gov/metar/data/
 
EIME 242200Z 28009KT 9999 BKN050 07/02 Q1032
TAF EIME 242000Z 2421/2506 29012KT 9999 FEW020 SCT040 
     BECMG 2421/2423 26008KT 
     PROB30 
     TEMPO 2505/2506 4000 BR
       
EIKN 241900Z 30012KT 9999 BKN039 07/03 Q1032 NOSIG
TAF EIKN 241700Z 2418/2518 30015KT 9999 FEW030 SCT035 
     BECMG 2421/2424 30007KT 
     PROB40 
     TEMPO 2503/2508 4000 BR 
     TEMPO 2506/2510 VRB03KT 
     PROB30 
     TEMPO 2506/2508 0500 FG BKN001 
     BECMG 2516/2518 VRB03KT
       
EICK 242200Z 30008KT 9999 FEW018 SCT034 06/04 Q1035 NOSIG
TAF EICK 241700Z 2418/2518 32012KT 9999 FEW020 BKN035 
     BECMG 2419/2421 30007KT 
     BECMG 2508/2510 36005KT 
     BECMG 2515/2517 25008KT
       
EIDL 242000Z 31015KT 9000 SCT025 BKN049 08/06 Q1031
TAF EIDL 241700Z 2418/2421 30020KT 9999 SCT025 
     TEMPO 2418/2419 29022G35KT -SHRA BKN014 
     BECMG 2419/2421 31010KT
       
EIDW 242200Z 29015KT 9999 FEW017 SCT042 07/02 Q1032 NOSIG
TAF EIDW 241700Z 2418/2518 28018KT 9999 FEW020 SCT040 
     TEMPO 2418/2419 29020G30KT 
     BECMG 2419/2421 28012KT 
     BECMG 2501/2504 31007KT 
     PROB30 
     TEMPO 2505/2508 4000 BR
       
EIKY 241930Z 30005KT 260V330 9999 -RA FEW021 OVC037 09/05 Q1035
TAF EIKY 241700Z 2418/2421 31008KT 9999 FEW030 SCT030
       
EINN 242200Z 28011KT 9999 FEW024 SCT040 08/03 Q1035 NOSIG
TAF EINN 241700Z 2418/2518 29014KT 9999 FEW025 BKN040 
     BECMG 2420/2423 30006KT 
     BECMG 2501/2503 VRB03KT 
     PROB30 
     TEMPO 2505/2508 4000 BR 
     BECMG 2509/2511 31005KT
       
EISG 241900Z 29015KT 6000 FEW030 OVC039 09/05 Q1032
TAF EISG 242000Z 2421/2506 29017KT 8000 BKN045 
     BECMG 2421/2423 31012KT
       
EIWF 242030Z 31008KT CAVOK ///// Q1033
TAF EIWF 242000Z 2421/2506 30010KT 9999 SCT040 
     BECMG 2422/2501 26007KT